Overview Statistics Trail Chart Weather Telemetry Raw packets
 

This is the latest recevied weather packets stored in our database for station/object WA5TET. If no packets are shown the sender has not sent any weather packets the latest 10 day(s).

<< 1 2 3 4 >>
Time Temp. Humidity Pressure Rain* Wind** Luminosity Snow
1788622589 33.89° C 49% 1013.7 hPa 0 mm - 673 W/m² -
1788622284 32.78° C 52% 1013.6 hPa 0 mm - 655 W/m² -
1788621980 32.78° C 54% 1013.6 hPa 0 mm - 639 W/m² -
1788621674 32.22° C 54% 1013.7 hPa 0 mm - 621 W/m² -
1788621369 32.22° C 55% 1013.7 hPa 0 mm - 595 W/m² -
1788621064 32.78° C 53% 1013.6 hPa 0 mm - 576 W/m² -
1788620760 33.33° C 53% 1013.6 hPa 0 mm - 563 W/m² -
1788620458 32.78° C 54% 1013.7 hPa 0 mm - 541 W/m² -
1788620156 33.33° C 52% 1013.5 hPa 0 mm - 520 W/m² -
1788619856 32.78° C 54% 1013.5 hPa 0 mm - 504 W/m² -
1788619551 32.22° C 55% 1013.5 hPa 0 mm - 483 W/m² -
1788619250 32.22° C 56% 1013.5 hPa 0 mm - 462 W/m² -
1788618950 32.22° C 55% 1013.6 hPa 0 mm - 440 W/m² -
1788618645 32.22° C 56% 1013.5 hPa 0 mm - 226 W/m² -
1788618344 32.22° C 56% 1013.5 hPa 0 mm - 178 W/m² -
1788618039 31.67° C 57% 1013.5 hPa 0 mm - 136 W/m² -
1788617739 31.11° C 58% 1013.5 hPa 0 mm - 82 W/m² -
1788617436 31.67° C 59% 1013.5 hPa 0 mm - 335 W/m² -
1788617136 31.11° C 60% 1013.6 hPa 0 mm - 74 W/m² -
1788616835 31.11° C 59% 1013.5 hPa 0 mm - 170 W/m² -
1788616530 31.11° C 60% 1013.4 hPa 0 mm - 272 W/m² -
1788616225 30.56° C 60% 1013.6 hPa 0 mm - 70 W/m² -
1788615920 30.56° C 62% 1013.4 hPa 0 mm - 68 W/m² -
1788615619 30° C 64% 1013.6 hPa 0 mm - 66 W/m² -
1788615314 29.44° C 64% 1013.4 hPa 0 mm - 64 W/m² -

* Rain latest hour (hover to see other rain measurements)
** Current wind speed in m/s (hover to see current wind gust speed)